createdAt,value
2023-05-02T00:00:33.432Z,11.90
2023-05-02T00:01:33.478Z,11.90
2023-05-02T00:02:33.487Z,11.90
2023-05-02T00:03:33.518Z,11.83
2023-05-02T00:04:33.487Z,11.83
2023-05-02T00:05:33.358Z,11.94
2023-05-02T00:06:33.442Z,11.88
2023-05-02T00:07:33.350Z,11.86
2023-05-02T00:08:33.404Z,11.83
2023-05-02T00:09:33.330Z,11.73
2023-05-02T00:10:33.304Z,11.70
2023-05-02T00:11:33.379Z,11.73
2023-05-02T00:12:33.292Z,11.68
2023-05-02T00:13:33.358Z,11.72
2023-05-02T00:14:33.285Z,11.68
2023-05-02T00:15:33.256Z,11.75
2023-05-02T00:16:33.420Z,11.75
2023-05-02T00:17:33.280Z,11.77
2023-05-02T00:18:33.242Z,11.72
2023-05-02T00:19:33.240Z,11.72
2023-05-02T00:20:33.198Z,11.75
2023-05-02T00:21:33.196Z,11.73
2023-05-02T00:22:33.247Z,11.75
2023-05-02T00:23:33.226Z,11.70
2023-05-02T00:24:33.158Z,11.75
2023-05-02T00:25:33.170Z,11.80
2023-05-02T00:26:33.158Z,11.77
2023-05-02T00:27:33.196Z,11.78
2023-05-02T00:28:33.116Z,11.73
2023-05-02T00:29:33.175Z,11.73
2023-05-02T00:30:33.099Z,11.83
2023-05-02T00:31:33.241Z,11.80
2023-05-02T00:32:33.106Z,11.86
2023-05-02T00:33:33.125Z,11.73
2023-05-02T00:34:33.043Z,11.73
2023-05-02T00:35:33.039Z,11.80
2023-05-02T00:36:33.041Z,11.78
2023-05-02T00:37:33.032Z,11.73
2023-05-02T00:38:33.076Z,11.78
2023-05-02T00:39:33.013Z,11.77
2023-05-02T00:40:32.997Z,11.77
2023-05-02T00:41:33.027Z,11.75
2023-05-02T00:42:32.991Z,11.77
2023-05-02T00:43:33.033Z,11.78
2023-05-02T00:44:32.928Z,11.70
2023-05-02T00:45:32.938Z,11.69
2023-05-02T00:46:32.952Z,11.70
2023-05-02T00:47:33.016Z,11.70
2023-05-02T00:48:33.004Z,11.73
2023-05-02T00:49:32.897Z,11.68
2023-05-02T00:50:32.895Z,11.69
2023-05-02T00:51:32.871Z,11.57
2023-05-02T00:52:32.916Z,11.60
2023-05-02T00:53:32.931Z,11.57
2023-05-02T00:54:32.842Z,11.57
2023-05-02T00:55:32.843Z,11.54
2023-05-02T00:56:32.802Z,11.62
2023-05-02T00:57:32.807Z,11.55
2023-05-02T00:58:32.889Z,11.62
2023-05-02T00:59:32.824Z,11.59
2023-05-02T01:00:32.778Z,11.54
2023-05-02T01:01:32.848Z,11.59
2023-05-02T01:02:32.849Z,11.54
2023-05-02T01:03:32.904Z,11.57
2023-05-02T01:04:32.916Z,11.54
2023-05-02T01:05:32.736Z,11.54
2023-05-02T01:06:32.740Z,11.43
2023-05-02T01:07:32.760Z,11.50
2023-05-02T01:08:32.760Z,11.41
2023-05-02T01:09:32.679Z,11.47
2023-05-02T01:10:32.673Z,11.51
2023-05-02T01:11:32.662Z,11.50
2023-05-02T01:12:32.638Z,11.41
2023-05-02T01:13:32.706Z,11.43
2023-05-02T01:14:32.623Z,11.47
2023-05-02T01:15:32.622Z,11.45
2023-05-02T01:16:32.629Z,11.37
2023-05-02T01:17:32.811Z,11.41
2023-05-02T01:18:32.579Z,11.43
2023-05-02T01:19:32.562Z,11.43
2023-05-02T01:20:32.583Z,11.43
2023-05-02T01:21:32.560Z,11.43
2023-05-02T01:22:32.615Z,11.44
2023-05-02T01:23:32.521Z,11.36
2023-05-02T01:24:32.584Z,11.44
2023-05-02T01:25:32.502Z,11.35
2023-05-02T01:26:32.493Z,11.41
2023-05-02T01:27:32.480Z,11.37
2023-05-02T01:28:32.456Z,11.36
2023-05-02T01:29:32.516Z,11.40
2023-05-02T01:30:32.451Z,11.41
2023-05-02T01:31:32.470Z,11.40
2023-05-02T01:32:32.481Z,11.36
2023-05-02T01:33:32.444Z,11.48
2023-05-02T01:34:32.474Z,11.37
2023-05-02T01:35:32.401Z,11.37
2023-05-02T01:36:32.414Z,11.51
2023-05-02T01:37:32.375Z,11.44
2023-05-02T01:38:32.451Z,11.36
2023-05-02T01:39:32.371Z,11.35
2023-05-02T01:40:32.345Z,11.47
2023-05-02T01:41:32.340Z,11.36
2023-05-02T01:42:32.322Z,11.43
2023-05-02T01:43:32.359Z,11.41
2023-05-02T01:44:32.300Z,11.35
2023-05-02T01:45:32.311Z,11.45
2023-05-02T01:46:32.297Z,11.36
2023-05-02T01:47:32.303Z,11.52
2023-05-02T01:48:32.250Z,11.41
2023-05-02T01:49:32.329Z,11.37
2023-05-02T01:50:32.267Z,11.44
2023-05-02T01:51:32.241Z,11.35
2023-05-02T01:52:32.341Z,11.44
2023-05-02T01:53:32.243Z,11.44
2023-05-02T01:54:32.245Z,11.40
2023-05-02T01:55:32.180Z,11.30
2023-05-02T01:56:32.174Z,11.40
2023-05-02T01:57:32.168Z,11.41
2023-05-02T01:58:32.162Z,11.40
2023-05-02T01:59:32.224Z,11.43
2023-05-02T02:00:32.155Z,11.43
2023-05-02T02:01:32.225Z,11.48
2023-05-02T02:02:32.110Z,11.41
2023-05-02T02:03:32.207Z,11.40
2023-05-02T02:04:32.150Z,11.44
2023-05-02T02:05:32.087Z,11.37
2023-05-02T02:06:32.187Z,11.33
2023-05-02T02:07:32.079Z,11.35
2023-05-02T02:08:32.116Z,11.35
2023-05-02T02:09:32.037Z,11.30
2023-05-02T02:10:32.027Z,11.30
2023-05-02T02:11:32.005Z,11.29
2023-05-02T02:12:32.013Z,11.35
2023-05-02T02:13:32.077Z,11.35
2023-05-02T02:14:32.039Z,11.40
2023-05-02T02:15:31.985Z,11.36
2023-05-02T02:16:32.056Z,11.45
2023-05-02T02:17:31.987Z,11.36
2023-05-02T02:18:32.027Z,11.43
2023-05-02T02:19:32.009Z,11.51
2023-05-02T02:20:31.930Z,11.43
2023-05-02T02:21:31.917Z,11.47
2023-05-02T02:22:31.889Z,11.45
2023-05-02T02:23:31.937Z,11.45
2023-05-02T02:24:31.943Z,11.41
2023-05-02T02:25:31.860Z,11.40
2023-05-02T02:26:31.865Z,11.40
2023-05-02T02:27:31.845Z,11.40
2023-05-02T02:28:31.880Z,11.40
2023-05-02T02:29:31.840Z,11.37
2023-05-02T02:30:31.867Z,11.41
2023-05-02T02:31:31.999Z,11.48
2023-05-02T02:32:31.835Z,11.41
2023-05-02T02:33:31.843Z,11.37
2023-05-02T02:34:31.832Z,11.36
2023-05-02T02:35:31.761Z,11.40
2023-05-02T02:36:31.765Z,11.36
2023-05-02T02:37:31.722Z,11.43
2023-05-02T02:38:31.802Z,11.43
2023-05-02T02:39:31.760Z,11.44
2023-05-02T02:40:31.778Z,11.43
2023-05-02T02:41:31.697Z,11.40
2023-05-02T02:42:31.712Z,11.40
2023-05-02T02:43:31.662Z,11.36
2023-05-02T02:44:31.664Z,11.36
2023-05-02T02:45:31.661Z,11.30
2023-05-02T02:46:31.782Z,11.29
2023-05-02T02:47:31.666Z,11.27
2023-05-02T02:48:31.647Z,11.26
2023-05-02T02:49:31.624Z,11.29
2023-05-02T02:50:31.597Z,11.19
2023-05-02T02:51:31.637Z,11.25
2023-05-02T02:52:31.563Z,11.26
2023-05-02T02:53:31.564Z,11.22
2023-05-02T02:54:31.563Z,11.22
2023-05-02T02:55:31.612Z,11.17
2023-05-02T02:56:31.555Z,11.19
2023-05-02T02:57:31.572Z,11.19
2023-05-02T02:58:31.571Z,11.25
2023-05-02T02:59:31.500Z,11.22
2023-05-02T03:00:31.500Z,11.12
2023-05-02T03:01:31.563Z,11.15
2023-05-02T03:02:31.490Z,11.17
2023-05-02T03:03:31.487Z,11.14
2023-05-02T03:04:31.462Z,11.05
2023-05-02T03:05:31.435Z,11.12
2023-05-02T03:06:31.599Z,11.18
2023-05-02T03:07:31.406Z,11.17
2023-05-02T03:08:31.405Z,11.22
2023-05-02T03:09:31.390Z,11.18
2023-05-02T03:10:31.417Z,11.14
2023-05-02T03:11:31.465Z,11.17
2023-05-02T03:12:31.476Z,11.19
2023-05-02T03:13:31.330Z,11.17
2023-05-02T03:14:31.441Z,11.15
2023-05-02T03:15:31.334Z,11.15
2023-05-02T03:16:31.590Z,11.19
2023-05-02T03:17:31.357Z,11.25
2023-05-02T03:18:31.395Z,11.15
2023-05-02T03:19:31.274Z,11.19
2023-05-02T03:20:31.271Z,11.22
2023-05-02T03:21:31.298Z,11.19
2023-05-02T03:22:31.263Z,11.22
2023-05-02T03:23:31.245Z,11.15
2023-05-02T03:24:31.306Z,11.17
2023-05-02T03:25:31.227Z,11.18
2023-05-02T03:26:31.281Z,11.17
2023-05-02T03:27:31.195Z,11.27
2023-05-02T03:28:31.254Z,11.07
2023-05-02T03:29:31.196Z,11.08
2023-05-02T03:30:31.160Z,11.04
2023-05-02T03:31:31.282Z,11.07
2023-05-02T03:32:31.183Z,11.04
2023-05-02T03:33:31.142Z,10.97
2023-05-02T03:34:31.120Z,11.14
2023-05-02T03:35:31.133Z,11.10
2023-05-02T03:36:31.097Z,10.96
2023-05-02T03:37:31.164Z,10.97
2023-05-02T03:38:31.089Z,10.99
2023-05-02T03:39:31.080Z,10.96
2023-05-02T03:40:31.048Z,10.93
2023-05-02T03:41:31.078Z,11.08
2023-05-02T03:42:31.135Z,10.99
2023-05-02T03:43:31.023Z,10.96
2023-05-02T03:44:31.032Z,10.92
2023-05-02T03:45:31.012Z,10.86
2023-05-02T03:46:31.047Z,10.97
2023-05-02T03:47:31.096Z,10.92
2023-05-02T03:48:31.005Z,10.84
2023-05-02T03:49:30.974Z,10.86
2023-05-02T03:50:30.967Z,10.79
2023-05-02T03:51:30.941Z,10.86
2023-05-02T03:52:30.946Z,10.81
2023-05-02T03:53:30.973Z,10.79
2023-05-02T03:54:30.912Z,10.76
2023-05-02T03:55:30.931Z,10.69
2023-05-02T03:56:30.904Z,10.78
2023-05-02T03:57:30.876Z,10.64
2023-05-02T03:58:30.931Z,10.72
2023-05-02T03:59:30.875Z,10.75
2023-05-02T04:00:30.873Z,10.64
2023-05-02T04:01:30.859Z,10.63
2023-05-02T04:02:30.985Z,10.64
2023-05-02T04:03:30.866Z,10.60
2023-05-02T04:04:30.899Z,10.64
2023-05-02T04:05:30.796Z,10.59
2023-05-02T04:06:30.814Z,10.49
2023-05-02T04:07:30.800Z,10.51
2023-05-02T04:08:30.821Z,10.48
2023-05-02T04:09:30.742Z,10.53
2023-05-02T04:10:30.751Z,10.48
2023-05-02T04:11:30.736Z,10.48
2023-05-02T04:12:30.723Z,10.46
2023-05-02T04:13:31.272Z,10.46
2023-05-02T04:14:30.763Z,10.48
2023-05-02T04:15:30.686Z,10.44
2023-05-02T04:16:30.872Z,10.41
2023-05-02T04:17:30.702Z,10.37
2023-05-02T04:18:30.645Z,10.44
2023-05-02T04:19:30.699Z,10.40
2023-05-02T04:20:30.636Z,10.44
2023-05-02T04:21:30.622Z,10.33
2023-05-02T04:22:30.613Z,10.31
2023-05-02T04:23:30.603Z,10.25
2023-05-02T04:24:30.658Z,10.33
2023-05-02T04:25:30.586Z,10.38
2023-05-02T04:26:30.595Z,10.23
2023-05-02T04:27:30.561Z,10.26
2023-05-02T04:28:30.559Z,10.22
2023-05-02T04:29:30.612Z,10.30
2023-05-02T04:30:30.539Z,10.25
2023-05-02T04:31:30.713Z,10.28
2023-05-02T04:32:30.539Z,10.31
2023-05-02T04:33:30.504Z,10.20
2023-05-02T04:34:30.549Z,10.30
2023-05-02T04:35:30.479Z,10.25
2023-05-02T04:36:30.464Z,10.34
2023-05-02T04:37:30.547Z,10.33
2023-05-02T04:38:30.432Z,10.40
2023-05-02T04:39:30.505Z,10.46
2023-05-02T04:40:30.412Z,10.41
2023-05-02T04:41:30.415Z,10.38
2023-05-02T04:42:30.393Z,10.35
2023-05-02T04:43:30.397Z,10.33
2023-05-02T04:44:30.442Z,10.35
2023-05-02T04:45:30.396Z,10.26
2023-05-02T04:46:31.046Z,10.40
2023-05-02T04:47:30.456Z,10.31
2023-05-02T04:48:30.343Z,10.35
2023-05-02T04:49:30.807Z,10.41
2023-05-02T04:50:30.375Z,10.26
2023-05-02T04:51:30.295Z,10.30
2023-05-02T04:52:30.301Z,10.31
2023-05-02T04:53:30.372Z,10.23
2023-05-02T04:54:30.305Z,10.19
2023-05-02T04:55:30.316Z,10.26
2023-05-02T04:56:30.256Z,10.22
2023-05-02T04:57:30.240Z,10.31
2023-05-02T04:58:30.216Z,10.25
2023-05-02T04:59:30.274Z,10.22
2023-05-02T05:00:30.218Z,10.22
2023-05-02T05:01:30.220Z,10.26
2023-05-02T05:02:30.297Z,10.15
2023-05-02T05:03:30.310Z,10.20
2023-05-02T05:04:30.318Z,10.26
2023-05-02T05:05:30.288Z,10.23
2023-05-02T05:06:30.150Z,10.20
2023-05-02T05:07:30.125Z,10.30
2023-05-02T05:08:30.103Z,10.15
2023-05-02T05:09:30.095Z,10.19
2023-05-02T05:10:30.144Z,10.28
2023-05-02T05:11:30.139Z,10.22
2023-05-02T05:12:31.324Z,10.17
2023-05-02T05:13:30.069Z,10.15
2023-05-02T05:14:30.047Z,9.99
2023-05-02T05:15:30.045Z,10.04
2023-05-02T05:16:30.160Z,9.98
2023-05-02T05:17:30.095Z,10.02
2023-05-02T05:18:30.018Z,9.94
2023-05-02T05:19:30.077Z,9.87
2023-05-02T05:20:29.998Z,9.86
2023-05-02T05:21:29.961Z,9.79
2023-05-02T05:22:29.971Z,9.65
2023-05-02T05:23:29.940Z,9.58
2023-05-02T05:24:30.004Z,9.43
2023-05-02T05:25:29.943Z,9.37
2023-05-02T05:26:29.931Z,9.31
2023-05-02T05:27:29.919Z,9.23
2023-05-02T05:28:29.899Z,9.13
2023-05-02T05:29:29.949Z,9.00
2023-05-02T05:30:29.890Z,9.00
2023-05-02T05:31:29.885Z,9.06
2023-05-02T05:32:29.987Z,8.99
2023-05-02T05:33:29.866Z,8.89
2023-05-02T05:34:29.898Z,8.87
2023-05-02T05:35:29.818Z,8.81
2023-05-02T05:36:29.848Z,8.97
2023-05-02T05:37:29.833Z,8.85
2023-05-02T05:38:29.827Z,8.95
2023-05-02T05:39:29.861Z,8.82
2023-05-02T05:40:29.793Z,8.82
2023-05-02T05:41:29.807Z,8.84
2023-05-02T05:42:29.743Z,8.79
2023-05-02T05:43:29.744Z,8.82
2023-05-02T05:44:29.801Z,8.78
2023-05-02T05:45:29.774Z,8.78
2023-05-02T05:46:29.799Z,8.79
2023-05-02T05:47:29.805Z,8.74
2023-05-02T05:48:29.802Z,8.70
2023-05-02T05:49:29.691Z,8.78
2023-05-02T05:50:29.715Z,8.73
2023-05-02T05:51:29.694Z,8.78
2023-05-02T05:52:29.648Z,8.81
2023-05-02T05:53:29.664Z,8.81
2023-05-02T05:54:29.687Z,8.73
2023-05-02T05:55:29.640Z,8.85
2023-05-02T05:56:29.705Z,8.74
2023-05-02T05:57:29.642Z,8.78
2023-05-02T05:58:29.661Z,8.74
2023-05-02T05:59:29.580Z,8.64
2023-05-02T06:00:29.630Z,8.76
2023-05-02T06:01:29.566Z,8.61
2023-05-02T06:02:29.687Z,8.64
2023-05-02T06:03:29.701Z,8.67
2023-05-02T06:04:29.585Z,8.60
2023-05-02T06:05:29.608Z,8.69
2023-05-02T06:06:29.529Z,8.60
2023-05-02T06:07:29.557Z,8.61
2023-05-02T06:08:29.508Z,8.46
2023-05-02T06:09:29.524Z,8.45
2023-05-02T06:10:29.495Z,8.42
2023-05-02T06:11:29.509Z,8.34
2023-05-02T06:12:29.422Z,8.34
2023-05-02T06:13:29.433Z,8.30
2023-05-02T06:14:29.803Z,8.27
2023-05-02T06:15:29.466Z,8.24
2023-05-02T06:16:29.435Z,8.28
2023-05-02T06:17:29.422Z,8.19
2023-05-02T06:18:29.391Z,8.16
2023-05-02T06:19:29.351Z,8.15
2023-05-02T06:20:29.415Z,8.10
2023-05-02T06:21:29.339Z,8.13
2023-05-02T06:22:29.406Z,8.18
2023-05-02T06:23:29.336Z,8.10
2023-05-02T06:24:29.387Z,8.05
2023-05-02T06:25:29.301Z,8.06
2023-05-02T06:26:29.304Z,8.18
2023-05-02T06:27:30.242Z,8.06
2023-05-02T06:28:29.339Z,8.10
2023-05-02T06:29:29.254Z,8.13
2023-05-02T06:30:29.262Z,8.19
2023-05-02T06:31:29.283Z,8.18
2023-05-02T06:32:29.244Z,8.13
2023-05-02T06:33:29.259Z,8.16
2023-05-02T06:34:29.219Z,8.08
2023-05-02T06:35:29.204Z,8.20
2023-05-02T06:36:29.228Z,8.08
2023-05-02T06:37:29.221Z,8.08
2023-05-02T06:38:29.224Z,8.15
2023-05-02T06:39:29.152Z,8.09
2023-05-02T06:40:29.147Z,8.16
2023-05-02T06:41:29.193Z,8.15
2023-05-02T06:42:29.110Z,8.18
2023-05-02T06:43:29.099Z,8.10
2023-05-02T06:44:29.110Z,8.05
2023-05-02T06:45:29.102Z,8.08
2023-05-02T06:46:29.276Z,8.09
2023-05-02T06:47:29.125Z,8.12
2023-05-02T06:48:29.153Z,8.10
2023-05-02T06:49:29.069Z,8.08
2023-05-02T06:50:29.034Z,8.12
2023-05-02T06:51:29.024Z,8.13
2023-05-02T06:52:29.278Z,8.12
2023-05-02T06:53:30.176Z,8.24
2023-05-02T06:54:29.091Z,8.09
2023-05-02T06:55:28.995Z,8.08
2023-05-02T06:56:28.979Z,8.12
2023-05-02T06:57:28.961Z,8.15
2023-05-02T06:58:29.000Z,8.10
2023-05-02T06:59:29.000Z,8.18
2023-05-02T07:00:28.935Z,8.16
2023-05-02T07:01:28.961Z,8.23
2023-05-02T07:02:28.957Z,8.18
2023-05-02T07:03:28.880Z,8.30
2023-05-02T07:04:28.985Z,8.27
2023-05-02T07:05:28.894Z,8.28
2023-05-02T07:06:28.894Z,8.26
2023-05-02T07:07:28.847Z,8.28
2023-05-02T07:08:28.846Z,8.18
2023-05-02T07:09:28.936Z,8.24
2023-05-02T07:10:28.873Z,8.27
2023-05-02T07:11:28.830Z,8.13
2023-05-02T07:12:28.826Z,8.19
2023-05-02T07:13:28.806Z,8.27
2023-05-02T07:14:28.794Z,8.23
2023-05-02T07:15:28.847Z,8.12
2023-05-02T07:16:28.788Z,8.09
2023-05-02T07:17:28.785Z,8.06
2023-05-02T07:18:28.736Z,8.03
2023-05-02T07:19:28.740Z,7.97
2023-05-02T07:20:28.805Z,8.05
2023-05-02T07:21:28.698Z,8.12
2023-05-02T07:22:28.689Z,8.09
2023-05-02T07:23:28.675Z,8.12
2023-05-02T07:24:28.662Z,8.01
2023-05-02T07:25:28.707Z,8.10
2023-05-02T07:26:28.662Z,8.09
2023-05-02T07:27:28.630Z,8.01
2023-05-02T07:28:28.643Z,8.16
2023-05-02T07:29:28.623Z,8.08
2023-05-02T07:30:28.659Z,8.23
2023-05-02T07:31:28.676Z,8.10
2023-05-02T07:32:28.646Z,8.20
2023-05-02T07:33:28.639Z,8.23
2023-05-02T07:34:28.546Z,8.28
2023-05-02T07:35:28.634Z,8.26
2023-05-02T07:36:28.554Z,8.27
2023-05-02T07:37:28.528Z,8.33
2023-05-02T07:38:28.555Z,8.26
2023-05-02T07:39:28.550Z,8.34
2023-05-02T07:40:28.570Z,8.34
2023-05-02T07:41:28.499Z,8.30
2023-05-02T07:42:28.494Z,8.46
2023-05-02T07:43:28.476Z,8.49
2023-05-02T07:44:28.473Z,8.48
2023-05-02T07:45:28.523Z,8.52
2023-05-02T07:46:28.517Z,8.45
2023-05-02T07:47:28.451Z,8.48
2023-05-02T07:48:28.421Z,8.48
2023-05-02T07:49:28.410Z,8.55
2023-05-02T07:50:28.401Z,8.55
2023-05-02T07:51:28.458Z,8.52
2023-05-02T07:52:28.392Z,8.53
2023-05-02T07:53:28.391Z,8.53
2023-05-02T07:54:28.403Z,8.56
2023-05-02T07:55:28.367Z,8.60
2023-05-02T07:56:28.389Z,8.58
2023-05-02T07:57:28.370Z,8.69
2023-05-02T07:58:28.316Z,8.64
2023-05-02T07:59:28.322Z,8.74
2023-05-02T08:00:28.404Z,8.76
2023-05-02T08:01:28.281Z,8.79
2023-05-02T08:02:28.371Z,8.84
2023-05-02T08:03:28.448Z,8.92
2023-05-02T08:04:28.362Z,8.92
2023-05-02T08:05:28.304Z,8.91
2023-05-02T08:06:28.302Z,8.85
2023-05-02T08:07:28.215Z,8.89
2023-05-02T08:08:28.271Z,8.88
2023-05-02T08:09:28.198Z,8.88
2023-05-02T08:10:28.183Z,8.87
2023-05-02T08:11:28.237Z,8.88
2023-05-02T08:12:28.186Z,8.82
2023-05-02T08:13:28.205Z,8.84
2023-05-02T08:14:28.151Z,8.85
2023-05-02T08:15:28.135Z,8.84
2023-05-02T08:16:28.192Z,8.82
2023-05-02T08:17:28.227Z,8.78
2023-05-02T08:18:28.107Z,8.81
2023-05-02T08:19:28.082Z,8.76
2023-05-02T08:20:28.088Z,8.71
2023-05-02T08:21:28.079Z,8.78
2023-05-02T08:22:28.120Z,8.76
2023-05-02T08:23:28.131Z,8.76
2023-05-02T08:24:28.073Z,8.74
2023-05-02T08:25:28.035Z,8.67
2023-05-02T08:26:28.021Z,8.76
2023-05-02T08:27:28.006Z,8.67
2023-05-02T08:28:28.048Z,8.69
2023-05-02T08:29:28.063Z,8.63
2023-05-02T08:30:27.983Z,8.67
2023-05-02T08:31:28.030Z,8.67
2023-05-02T08:32:28.009Z,8.73
2023-05-02T08:33:27.997Z,8.74
2023-05-02T08:34:27.925Z,8.76
2023-05-02T08:35:27.956Z,8.70
2023-05-02T08:36:27.927Z,8.78
2023-05-02T08:37:27.908Z,8.74
2023-05-02T08:38:27.954Z,8.82
2023-05-02T08:39:27.893Z,8.82
2023-05-02T08:40:40.851Z,8.79
2023-05-02T08:41:28.880Z,8.82
2023-05-02T08:42:27.849Z,8.79
2023-05-02T08:43:27.900Z,8.85
2023-05-02T08:44:27.831Z,8.84
2023-05-02T08:45:27.817Z,8.82
2023-05-02T08:46:27.878Z,8.85
2023-05-02T08:47:27.905Z,8.87
2023-05-02T08:48:27.849Z,8.81
2023-05-02T08:49:27.777Z,8.84
2023-05-02T08:50:27.766Z,8.85
2023-05-02T08:51:27.770Z,8.73
2023-05-02T08:52:27.740Z,8.73
2023-05-02T08:53:27.810Z,8.78
2023-05-02T08:54:27.763Z,8.76
2023-05-02T08:55:27.806Z,8.79
2023-05-02T08:56:27.692Z,8.79
2023-05-02T08:57:27.682Z,8.81
2023-05-02T08:58:27.721Z,8.82
2023-05-02T08:59:27.750Z,8.87
2023-05-02T09:00:27.667Z,8.82
2023-05-02T09:01:27.701Z,8.89
2023-05-02T09:02:27.702Z,8.87
2023-05-02T09:03:27.638Z,8.85
2023-05-02T09:04:27.731Z,8.88
2023-05-02T09:05:27.611Z,8.95
2023-05-02T09:06:27.630Z,9.06
2023-05-02T09:07:27.590Z,9.00
2023-05-02T09:08:27.580Z,9.08
2023-05-02T09:09:27.626Z,9.25
2023-05-02T09:10:27.547Z,9.19
2023-05-02T09:11:27.558Z,9.26
2023-05-02T09:12:27.523Z,9.16
2023-05-02T09:13:27.515Z,9.22
2023-05-02T09:14:27.558Z,9.10
2023-05-02T09:15:27.498Z,9.16
2023-05-02T09:16:27.672Z,9.21
2023-05-02T09:17:27.524Z,9.18
2023-05-02T09:18:27.455Z,9.28
2023-05-02T09:19:27.512Z,9.28
2023-05-02T09:20:27.447Z,9.31
2023-05-02T09:21:27.451Z,9.39
2023-05-02T09:22:27.425Z,9.39
2023-05-02T09:23:27.426Z,9.36
2023-05-02T09:24:27.466Z,9.34
2023-05-02T09:25:27.377Z,9.32
2023-05-02T09:26:28.867Z,9.34
2023-05-02T09:27:27.398Z,9.43
2023-05-02T09:28:27.395Z,9.39
2023-05-02T09:29:27.429Z,9.39
2023-05-02T09:30:27.329Z,9.44
2023-05-02T09:31:49.694Z,9.44
2023-05-02T09:32:28.320Z,9.54
2023-05-02T09:33:27.339Z,9.58
2023-05-02T09:34:27.402Z,9.66
2023-05-02T09:35:27.280Z,9.61
2023-05-02T09:36:27.297Z,9.73
2023-05-02T09:37:27.248Z,9.76
2023-05-02T09:38:27.237Z,9.77
2023-05-02T09:39:27.235Z,9.74
2023-05-02T09:40:27.277Z,9.74
2023-05-02T09:41:27.266Z,9.79
2023-05-02T09:42:27.222Z,9.69
2023-05-02T09:43:27.198Z,9.66
2023-05-02T09:44:27.171Z,9.65
2023-05-02T09:45:27.176Z,9.65
2023-05-02T09:46:27.248Z,9.69
2023-05-02T09:47:27.147Z,9.64
2023-05-02T09:48:27.212Z,9.56
2023-05-02T09:49:27.131Z,9.50
2023-05-02T09:50:27.232Z,9.56
2023-05-02T09:51:27.090Z,9.55
2023-05-02T09:52:27.137Z,9.51
2023-05-02T09:53:27.101Z,9.55
2023-05-02T09:54:27.139Z,9.56
2023-05-02T09:55:27.111Z,9.58
2023-05-02T09:56:27.056Z,9.56
2023-05-02T09:57:27.027Z,9.58
2023-05-02T09:58:27.042Z,9.55
2023-05-02T09:59:27.027Z,9.51
2023-05-02T10:00:27.065Z,9.50
2023-05-02T10:01:27.116Z,9.48
2023-05-02T10:02:27.016Z,9.50
2023-05-02T10:03:27.002Z,9.59
2023-05-02T10:04:27.078Z,9.62
2023-05-02T10:05:26.993Z,9.59
2023-05-02T10:06:26.970Z,9.62
2023-05-02T10:07:26.921Z,9.64
2023-05-02T10:08:27.017Z,9.69
2023-05-02T10:09:26.957Z,9.66
2023-05-02T10:10:26.944Z,9.77
2023-05-02T10:11:26.962Z,9.80
2023-05-02T10:12:26.894Z,9.87
2023-05-02T10:13:26.852Z,9.89
2023-05-02T10:14:29.155Z,9.94
2023-05-02T10:15:26.919Z,9.94
2023-05-02T10:16:26.858Z,10.02
2023-05-02T10:17:26.871Z,10.04
2023-05-02T10:18:26.816Z,10.22
2023-05-02T10:19:26.805Z,10.20
2023-05-02T10:20:27.553Z,10.19
2023-05-02T10:21:26.782Z,10.16
2023-05-02T10:22:26.770Z,10.23
2023-05-02T10:23:26.767Z,10.15
2023-05-02T10:24:26.869Z,10.22
2023-05-02T10:25:26.772Z,10.28
2023-05-02T10:26:26.747Z,10.30
2023-05-02T10:27:26.770Z,10.33
2023-05-02T10:28:26.739Z,10.30
2023-05-02T10:29:26.757Z,10.31
2023-05-02T10:30:26.715Z,10.26
2023-05-02T10:31:26.771Z,10.26
2023-05-02T10:32:26.695Z,10.30
2023-05-02T10:33:26.735Z,10.35
2023-05-02T10:34:26.630Z,10.37
2023-05-02T10:35:26.628Z,10.31
2023-05-02T10:36:26.599Z,10.34
2023-05-02T10:37:26.629Z,10.34
2023-05-02T10:38:26.681Z,10.38
2023-05-02T10:39:26.588Z,10.41
2023-05-02T10:40:26.581Z,10.42
2023-05-02T10:41:26.564Z,10.53
2023-05-02T10:42:26.565Z,10.44
2023-05-02T10:43:26.626Z,10.49
2023-05-02T10:44:26.792Z,10.68
2023-05-02T10:45:26.520Z,10.69
2023-05-02T10:46:26.606Z,10.72
2023-05-02T10:47:26.514Z,10.75
2023-05-02T10:48:26.490Z,10.72
2023-05-02T10:49:26.488Z,10.75
2023-05-02T10:50:26.537Z,10.75
2023-05-02T10:51:26.437Z,10.71
2023-05-02T10:52:26.478Z,10.75
2023-05-02T10:53:26.441Z,10.78
2023-05-02T10:54:26.431Z,10.78
2023-05-02T10:55:26.406Z,10.82
2023-05-02T10:56:29.035Z,10.86
2023-05-02T10:57:26.379Z,10.90
2023-05-02T10:58:26.379Z,10.79
2023-05-02T10:59:26.407Z,10.87
2023-05-02T11:00:26.360Z,10.90
2023-05-02T11:01:26.464Z,11.08
2023-05-02T11:02:26.465Z,11.19
2023-05-02T11:03:26.391Z,11.27
2023-05-02T11:04:26.319Z,11.41
2023-05-02T11:05:26.416Z,11.40
2023-05-02T11:06:26.344Z,11.41
2023-05-02T11:07:26.294Z,11.43
2023-05-02T11:08:26.289Z,11.36
2023-05-02T11:09:26.247Z,11.43
2023-05-02T11:10:26.304Z,11.35
2023-05-02T11:11:26.301Z,11.36
2023-05-02T11:12:26.329Z,11.30
2023-05-02T11:13:26.224Z,11.22
2023-05-02T11:14:26.254Z,11.22
2023-05-02T11:15:26.208Z,11.23
2023-05-02T11:16:26.259Z,11.18
2023-05-02T11:17:26.226Z,11.19
2023-05-02T11:18:26.217Z,11.23
2023-05-02T11:19:26.157Z,11.25
2023-05-02T11:20:26.153Z,11.14
2023-05-02T11:21:26.199Z,11.17
2023-05-02T11:22:26.120Z,11.23
2023-05-02T11:23:26.335Z,11.26
2023-05-02T11:24:26.108Z,11.37
2023-05-02T11:25:26.081Z,11.29
2023-05-02T11:26:26.145Z,11.32
2023-05-02T11:27:26.075Z,11.18
2023-05-02T11:28:26.126Z,11.18
2023-05-02T11:29:26.042Z,11.23
2023-05-02T11:30:26.037Z,11.11
2023-05-02T11:31:26.071Z,11.08
2023-05-02T11:32:26.212Z,11.02
2023-05-02T11:33:26.056Z,11.10
2023-05-02T11:34:25.994Z,11.00
2023-05-02T11:35:25.985Z,11.04
2023-05-02T11:36:26.019Z,10.96
2023-05-02T11:37:25.948Z,11.00
2023-05-02T11:38:25.963Z,11.05
2023-05-02T11:39:25.963Z,10.93
2023-05-02T11:40:25.931Z,10.97
2023-05-02T11:41:25.966Z,10.99
2023-05-02T11:42:25.925Z,11.04
2023-05-02T11:43:25.980Z,11.07
2023-05-02T11:44:25.935Z,11.14
2023-05-02T11:45:25.891Z,11.12
2023-05-02T11:46:25.885Z,11.22
2023-05-02T11:47:25.892Z,11.12
2023-05-02T11:48:25.902Z,11.11
2023-05-02T11:49:25.862Z,11.14
2023-05-02T11:50:25.836Z,11.18
2023-05-02T11:51:25.811Z,11.17
2023-05-02T11:52:25.832Z,11.18
2023-05-02T11:53:25.855Z,11.25
2023-05-02T11:54:25.784Z,11.17
2023-05-02T11:55:25.789Z,11.22
2023-05-02T11:56:25.788Z,11.18
2023-05-02T11:57:25.756Z,11.05
2023-05-02T11:58:25.809Z,11.14
2023-05-02T11:59:25.722Z,11.17
2023-05-02T12:00:25.756Z,11.27
2023-05-02T12:01:25.708Z,11.29
2023-05-02T12:02:25.775Z,11.29
2023-05-02T12:03:25.835Z,11.36
2023-05-02T12:04:25.676Z,11.36
2023-05-02T12:05:25.730Z,11.44
2023-05-02T12:06:25.697Z,11.47
2023-05-02T12:07:25.698Z,11.36
2023-05-02T12:08:25.636Z,11.57
2023-05-02T12:09:25.709Z,11.66
2023-05-02T12:10:25.598Z,11.69
2023-05-02T12:11:25.591Z,11.69
2023-05-02T12:12:25.582Z,11.77
2023-05-02T12:13:25.619Z,11.70
2023-05-02T12:14:25.638Z,11.80
2023-05-02T12:15:25.592Z,11.81
2023-05-02T12:16:25.594Z,11.72
2023-05-02T12:17:25.557Z,11.68
2023-05-02T12:18:25.539Z,11.63
2023-05-02T12:19:25.596Z,11.68
2023-05-02T12:20:25.492Z,11.59
2023-05-02T12:21:25.496Z,11.62
2023-05-02T12:22:25.580Z,11.62
2023-05-02T12:23:25.462Z,11.65
2023-05-02T12:24:25.474Z,11.73
2023-05-02T12:25:25.456Z,11.78
2023-05-02T12:26:25.684Z,11.69
2023-05-02T12:27:25.498Z,11.66
2023-05-02T12:28:25.428Z,11.62
2023-05-02T12:29:25.406Z,11.72
2023-05-02T12:30:25.403Z,11.70
2023-05-02T12:31:25.396Z,11.65
2023-05-02T12:32:27.416Z,11.54
2023-05-02T12:33:25.354Z,11.35
2023-05-02T12:34:25.340Z,11.40
2023-05-02T12:35:25.344Z,11.36
2023-05-02T12:36:25.335Z,11.41
2023-05-02T12:37:25.403Z,11.47
2023-05-02T12:38:25.308Z,11.51
2023-05-02T12:39:25.310Z,11.59
2023-05-02T12:40:25.295Z,11.75
2023-05-02T12:41:25.344Z,11.88
2023-05-02T12:42:25.330Z,12.04
2023-05-02T12:43:25.256Z,12.02
2023-05-02T12:44:25.246Z,12.04
2023-05-02T12:45:25.236Z,12.13
2023-05-02T12:46:25.247Z,12.15
2023-05-02T12:47:25.413Z,12.28
2023-05-02T12:48:25.214Z,12.28
2023-05-02T12:49:25.196Z,12.27
2023-05-02T12:50:25.172Z,12.20
2023-05-02T12:51:25.234Z,12.28
2023-05-02T12:52:25.158Z,12.35
2023-05-02T12:53:25.147Z,12.37
2023-05-02T12:54:25.149Z,12.47
2023-05-02T12:55:25.132Z,12.57
2023-05-02T12:56:25.173Z,12.72
2023-05-02T12:57:25.174Z,12.78
2023-05-02T12:58:25.085Z,12.91
2023-05-02T12:59:25.096Z,12.97
2023-05-02T13:00:25.059Z,12.75
2023-05-02T13:01:25.116Z,12.49
2023-05-02T13:02:25.138Z,12.39